MAPA DE AEROPUERTO

INFORMACIÓN METAR y TAF


Deprecated: The each() function is deprecated. This message will be suppressed on further calls in /home/customer/www/clickair-va.com/public_html/VAM/vam/helpers/get_metar.php on line 20
METAR FOR LGSK
ADDS - METARS form results

(1621 UTC 13 January 2023)
Data provider http://aviationweather.gov/metar/data/
 
Forecast for: LGSK (SKIATHOS ISLAND , GR)
Text: TAF LGSK 131400Z 1315/1324 35012KT 9999 FEW012 SCT025
Forecast period: 1500 to 1600 UTC 13 January 2023
Forecast type: FROM: standard forecast or significant change
Winds: from the N (350 degrees) at 14 MPH (12 knots; 6.2 m/s)
Visibility: 6 or more miles (10+ km)
Ceiling: at least 12,000 feet AGL
Clouds: few clouds at 1200 feet AGL
scattered clouds at 2500 feet AGL
Weather: no significant weather forecast for this period
Text: BECMG 1316/1318 02010KT
Forecast period: 1600 UTC 13 January 2023 to 0000 UTC 14 January 2023
Forecast type: BECOMING: Conditions expected to become as follows by 1800 UTC 13 January 2023
Winds: from the NNE (20 degrees) at 12 MPH (10 knots; 5.1 m/s)
Visibility: 6 or more miles (10+ km)
Ceiling: at least 12,000 feet AGL
Clouds: few clouds at 1200 feet AGL
scattered clouds at 2500 feet AGL
Weather: no significant weather forecast for this period